createdAt,value
2022-08-26T00:00:03.883Z,32.3
2022-08-26T00:05:01.517Z,31.3
2022-08-26T00:10:02.237Z,31.2
2022-08-26T00:15:02.823Z,32.2
2022-08-26T00:25:03.717Z,32.6
2022-08-26T00:30:05.814Z,32.7
2022-08-26T00:35:01.990Z,31.8
2022-08-26T00:40:05.677Z,30.7
2022-08-26T00:45:11.735Z,30.7
2022-08-26T00:50:01.528Z,30.2
2022-08-26T00:55:07.544Z,29.9
2022-08-26T01:00:05.421Z,30.2
2022-08-26T01:05:03.548Z,30.2
2022-08-26T01:10:01.538Z,29.4
2022-08-26T01:15:02.244Z,29.4
2022-08-26T01:20:01.553Z,29.9
2022-08-26T01:25:03.980Z,30.4
2022-08-26T01:30:03.550Z,30.8
2022-08-26T01:35:01.561Z,31.3
2022-08-26T01:40:04.960Z,30.8
2022-08-26T01:45:06.132Z,30.0
2022-08-26T01:50:03.113Z,30.0
2022-08-26T01:55:01.637Z,29.9
2022-08-26T02:00:05.027Z,29.4
2022-08-26T02:05:01.572Z,30.6
2022-08-26T02:10:04.053Z,31.5
2022-08-26T02:15:11.548Z,31.3
2022-08-26T02:25:02.453Z,31.8
2022-08-26T02:30:10.465Z,31.5
2022-08-26T02:35:01.709Z,31.0
2022-08-26T02:40:01.905Z,31.2
2022-08-26T02:45:02.632Z,30.8
2022-08-26T02:50:02.471Z,30.9
2022-08-26T02:55:02.477Z,30.3
2022-08-26T03:00:04.853Z,30.8
2022-08-26T03:05:02.658Z,30.5
2022-08-26T03:10:08.919Z,31.0
2022-08-26T03:20:03.829Z,31.1
2022-08-26T03:25:02.858Z,31.4
2022-08-26T03:30:05.201Z,32.3
2022-08-26T03:35:01.576Z,32.4
2022-08-26T03:40:01.834Z,31.5
2022-08-26T03:45:03.123Z,32.1
2022-08-26T03:50:01.585Z,31.4
2022-08-26T03:55:03.074Z,32.0
2022-08-26T04:00:03.321Z,31.8
2022-08-26T04:05:01.584Z,32.5
2022-08-26T04:15:06.247Z,33.0
2022-08-26T04:20:01.675Z,31.7
2022-08-26T04:25:02.086Z,32.3
2022-08-26T04:30:03.772Z,32.8
2022-08-26T04:35:02.046Z,33.5
2022-08-26T04:40:01.964Z,33.1
2022-08-26T04:45:11.973Z,34.0
2022-08-26T04:50:02.166Z,34.1
2022-08-26T04:55:01.594Z,34.2
2022-08-26T05:00:05.292Z,33.3
2022-08-26T05:05:01.628Z,33.6
2022-08-26T05:10:01.710Z,33.1
2022-08-26T05:15:06.009Z,32.9
2022-08-26T05:20:03.969Z,32.2
2022-08-26T05:25:01.669Z,33.6
2022-08-26T05:30:02.379Z,33.8
2022-08-26T05:35:01.520Z,33.8
2022-08-26T05:40:01.910Z,33.8
2022-08-26T05:45:03.361Z,33.4
2022-08-26T05:50:03.217Z,33.4
2022-08-26T05:55:01.609Z,35.1
2022-08-26T06:00:02.775Z,36.8
2022-08-26T06:05:01.609Z,37.9
2022-08-26T06:15:05.078Z,40.8
2022-08-26T06:20:03.348Z,39.8
2022-08-26T06:25:01.617Z,39.0
2022-08-26T06:30:04.004Z,38.7
2022-08-26T06:35:01.785Z,39.3
2022-08-26T06:40:04.058Z,38.3
2022-08-26T06:45:05.117Z,38.6
2022-08-26T06:50:02.345Z,39.5
2022-08-26T06:55:02.970Z,39.8
2022-08-26T07:00:04.329Z,39.4
2022-08-26T07:05:02.773Z,39.2
2022-08-26T07:10:02.304Z,39.4
2022-08-26T07:15:02.577Z,38.4
2022-08-26T07:20:01.818Z,37.5
2022-08-26T07:25:05.672Z,36.1
2022-08-26T07:30:04.136Z,35.0
2022-08-26T07:35:02.587Z,33.8
2022-08-26T07:40:02.331Z,33.2
2022-08-26T07:45:03.157Z,33.2
2022-08-26T07:50:03.128Z,32.5
2022-08-26T07:55:03.984Z,32.1
2022-08-26T08:00:05.369Z,31.6
2022-08-26T08:05:02.738Z,30.4
2022-08-26T08:10:12.835Z,29.6
2022-08-26T08:15:02.247Z,29.2
2022-08-26T08:20:04.392Z,27.5
2022-08-26T08:25:11.557Z,26.6
2022-08-26T08:30:05.074Z,26.0
2022-08-26T08:35:14.157Z,24.7
2022-08-26T08:40:03.023Z,23.8
2022-08-26T08:45:05.799Z,24.0
2022-08-26T08:50:05.512Z,23.1
2022-08-26T08:55:01.660Z,23.0
2022-08-26T09:00:08.201Z,22.6
2022-08-26T09:05:01.709Z,22.4
2022-08-26T09:10:01.636Z,22.8
2022-08-26T09:15:07.692Z,23.0
2022-08-26T09:20:01.528Z,23.3
2022-08-26T09:25:11.303Z,23.8
2022-08-26T09:30:03.448Z,23.6
2022-08-26T09:35:01.652Z,23.0
2022-08-26T09:40:12.464Z,23.3
2022-08-26T09:45:04.946Z,21.7
2022-08-26T09:50:02.311Z,22.0
2022-08-26T09:55:03.606Z,21.3
2022-08-26T10:00:17.776Z,21.9
2022-08-26T10:05:20.159Z,21.5
2022-08-26T10:10:01.601Z,21.2
2022-08-26T10:15:08.789Z,20.6
2022-08-26T10:25:03.067Z,21.2
2022-08-26T10:30:07.221Z,20.9
2022-08-26T10:35:01.832Z,22.0
2022-08-26T10:40:02.705Z,22.3
2022-08-26T10:46:01.848Z,23.2
2022-08-26T10:51:02.452Z,23.8
2022-08-26T10:56:01.862Z,25.0
2022-08-26T11:01:10.816Z,26.0
2022-08-26T11:06:01.443Z,26.0
2022-08-26T11:11:01.390Z,26.2
2022-08-26T11:16:01.487Z,25.6
2022-08-26T11:21:01.375Z,24.3
2022-08-26T11:26:02.107Z,23.6
2022-08-26T11:31:04.717Z,23.8
2022-08-26T11:36:28.248Z,22.1
2022-08-26T11:41:04.121Z,21.0
2022-08-26T11:46:09.875Z,19.9
2022-08-26T11:51:02.528Z,16.9
2022-08-26T11:56:01.549Z,14.5
2022-08-26T12:01:11.483Z,13.8
2022-08-26T12:06:14.617Z,13.6
2022-08-26T12:11:05.278Z,14.3
2022-08-26T12:16:03.253Z,15.4
2022-08-26T12:21:11.377Z,16.1
2022-08-26T12:26:02.668Z,16.3
2022-08-26T12:31:04.924Z,16.2
2022-08-26T12:36:03.954Z,15.4
2022-08-26T12:41:01.326Z,15.1
2022-08-26T12:46:01.902Z,14.9
2022-08-26T12:51:01.283Z,13.8
2022-08-26T12:56:01.300Z,13.5
2022-08-26T13:01:17.847Z,14.2
2022-08-26T13:06:01.659Z,14.5
2022-08-26T13:11:01.165Z,14.5
2022-08-26T13:16:01.761Z,15.0
2022-08-26T13:21:01.600Z,14.3
2022-08-26T13:26:01.575Z,13.8
2022-08-26T13:31:02.255Z,14.6
2022-08-26T13:36:01.648Z,14.2
2022-08-26T13:41:01.502Z,14.2
2022-08-26T13:46:01.692Z,14.6
2022-08-26T13:51:09.377Z,13.4
2022-08-26T13:56:02.630Z,11.5
2022-08-26T14:01:02.502Z,10.5
2022-08-26T14:06:02.111Z,9.4
2022-08-26T14:11:01.983Z,8.2
2022-08-26T14:16:04.433Z,7.2
2022-08-26T14:21:03.796Z,7.0
2022-08-26T14:26:01.937Z,7.2
2022-08-26T14:31:03.150Z,7.0
2022-08-26T14:36:02.205Z,8.6
2022-08-26T14:41:01.616Z,10.0
2022-08-26T14:47:01.820Z,11.3
2022-08-26T14:52:01.640Z,13.4
2022-08-26T14:57:01.596Z,14.4
2022-08-26T15:02:01.838Z,14.0
2022-08-26T15:07:01.504Z,13.8
2022-08-26T15:12:01.617Z,12.7
2022-08-26T15:17:01.634Z,11.4
2022-08-26T15:22:01.615Z,11.4
2022-08-26T15:27:01.715Z,11.0
2022-08-26T15:32:01.612Z,11.3
2022-08-26T15:37:01.621Z,11.6
2022-08-26T15:42:01.773Z,11.2
2022-08-26T15:47:01.706Z,10.5
2022-08-26T15:52:05.440Z,10.2
2022-08-26T15:57:04.062Z,9.8
2022-08-26T16:02:01.697Z,9.6
2022-08-26T16:07:01.607Z,9.8
2022-08-26T16:12:01.627Z,10.1
2022-08-26T16:17:01.628Z,11.3
2022-08-26T16:22:01.656Z,11.4
2022-08-26T16:27:01.631Z,11.8
2022-08-26T16:32:01.620Z,12.5
2022-08-26T16:37:01.634Z,13.2
2022-08-26T16:42:01.847Z,13.1
2022-08-26T16:47:01.641Z,13.9
2022-08-26T16:52:01.607Z,14.2
2022-08-26T16:57:02.021Z,15.0
2022-08-26T17:02:01.913Z,15.8
2022-08-26T17:07:02.015Z,16.0
2022-08-26T17:12:03.161Z,16.2
2022-08-26T17:17:02.087Z,17.0
2022-08-26T17:22:08.274Z,15.9
2022-08-26T17:27:01.583Z,15.3
2022-08-26T17:32:01.493Z,15.4
2022-08-26T17:37:01.460Z,15.1
2022-08-26T17:42:01.440Z,14.1
2022-08-26T17:47:01.444Z,14.3
2022-08-26T17:52:01.417Z,14.3
2022-08-26T17:57:01.287Z,14.5
2022-08-26T18:02:02.451Z,15.4
2022-08-26T18:07:01.373Z,16.5
2022-08-26T18:12:01.362Z,17.0
2022-08-26T18:17:02.349Z,16.8
2022-08-26T18:22:01.650Z,18.7
2022-08-26T18:27:01.733Z,19.4
2022-08-26T18:32:01.583Z,19.4
2022-08-26T18:37:01.845Z,19.4
2022-08-26T18:42:02.471Z,22.1
2022-08-26T18:52:01.669Z,22.1
2022-08-26T18:57:02.050Z,22.8
2022-08-26T19:02:02.022Z,23.4
2022-08-26T19:07:01.650Z,22.0
2022-08-26T19:12:01.852Z,20.3
2022-08-26T19:17:03.920Z,19.9
2022-08-26T19:22:01.649Z,19.6
2022-08-26T19:27:01.655Z,19.7
2022-08-26T19:32:01.655Z,21.0
2022-08-26T19:37:01.630Z,21.8
2022-08-26T19:42:01.939Z,23.3
2022-08-26T19:47:02.811Z,24.4
2022-08-26T19:52:01.567Z,24.1
2022-08-26T19:57:01.646Z,22.5
2022-08-26T20:02:02.648Z,21.6
2022-08-26T20:07:02.349Z,19.7
2022-08-26T20:12:01.732Z,19.9
2022-08-26T20:17:01.752Z,19.8
2022-08-26T20:22:01.647Z,20.3
2022-08-26T20:27:08.231Z,20.4
2022-08-26T20:32:01.835Z,20.4
2022-08-26T20:37:01.631Z,18.8
2022-08-26T20:42:01.630Z,19.0
2022-08-26T20:47:01.662Z,18.6
2022-08-26T20:52:02.209Z,19.5
2022-08-26T21:02:02.087Z,20.8
2022-08-26T21:07:01.997Z,20.3
2022-08-26T21:12:01.697Z,21.2
2022-08-26T21:17:02.159Z,20.2
2022-08-26T21:22:01.614Z,19.9
2022-08-26T21:27:01.618Z,19.0
2022-08-26T21:32:01.800Z,19.4
2022-08-26T21:37:06.024Z,18.8
2022-08-26T21:42:02.056Z,20.1
2022-08-26T21:47:02.026Z,21.6
2022-08-26T21:52:01.621Z,22.4
2022-08-26T21:57:01.623Z,23.8
2022-08-26T22:02:01.877Z,23.7
2022-08-26T22:07:01.745Z,21.8
2022-08-26T22:12:01.666Z,20.1
2022-08-26T22:17:01.799Z,19.2
2022-08-26T22:22:01.664Z,17.1
2022-08-26T22:27:01.626Z,16.6
2022-08-26T22:32:01.786Z,16.6
2022-08-26T22:42:01.516Z,15.6
2022-08-26T22:47:01.619Z,15.1
2022-08-26T22:52:01.886Z,14.9
2022-08-26T22:57:01.652Z,15.1
2022-08-26T23:02:01.715Z,15.0
2022-08-26T23:12:01.623Z,14.8
2022-08-26T23:17:01.771Z,14.5
2022-08-26T23:22:01.664Z,13.2
2022-08-26T23:27:01.915Z,13.7
2022-08-26T23:32:01.808Z,13.8
2022-08-26T23:37:01.694Z,15.1
2022-08-26T23:42:01.769Z,15.6
2022-08-26T23:47:01.933Z,16.7
2022-08-26T23:52:01.613Z,16.0
2022-08-26T23:57:01.610Z,15.9
